Datos actuales meteorológicos del Aeropuerto de Valencia      LEVC Valencia



Temperatura
19°C Temperatura
9°C Punto de rocío
52% Humedad



Viento
8 KM/H
5 MPH
2 M/S
4 NUDO



120°
ESE
Condiciones actuales

Parcialmente nublado Parcialmente nublado
Presión 1021.92 (hPa) - 30.18 (inHg)
Visibilidad 6.2 (milla) - 10 (km)
✈️ Manises
Código de aeropuerto LEVC

localidad: Valencia
Distancia de Meteo Lliria: 18 (km)

Metar:
LEVC 091230Z 12004KT 060V170 9999 FEW035 19/09 Q1022 NOSIG

Hora: 09-04-2020 14:30 CEST

Follow @meteolliria2013